Time;durP1;ratioP1;P1;durP2;ratioP2;P2;SDS_P1;SDS_P2;PMS_P1;PMS_P2;Temp;Humidity;BMP_temperature;BMP_pressure;BME280_temperature;BME280_humidity;BME280_pressure;Samples;Min_cycle;Max_cycle;Signal;HPM_P1;HPM_P2
2021/07/29 00:01:04;;;;;;;13.60;12.20;;;23.00;82.40;;;;;;5097934;28;20066;-77
2021/07/29 00:03:30;;;;;;;14.90;12.88;;;23.00;82.80;;;;;;5098582;28;20534;-77
2021/07/29 00:05:55;;;;;;;19.65;14.85;;;23.00;83.00;;;;;;5098885;28;20119;-77
2021/07/29 00:08:21;;;;;;;16.50;13.85;;;23.00;83.00;;;;;;5098376;28;20039;-77
2021/07/29 00:10:48;;;;;;;16.17;14.55;;;23.00;83.00;;;;;;5115211;28;20122;-77
2021/07/29 00:13:15;;;;;;;19.10;14.98;;;22.90;82.90;;;;;;5116413;28;20068;-77
2021/07/29 00:15:41;;;;;;;15.27;13.73;;;22.90;83.10;;;;;;5081061;28;20034;-77
2021/07/29 00:20:33;;;;;;;18.90;14.30;;;22.90;83.70;;;;;;5116358;28;20092;-78
2021/07/29 00:23:01;;;;;;;17.10;14.02;;;22.90;83.50;;;;;;5097075;28;20031;-77
2021/07/29 00:25:28;;;;;;;19.70;14.88;;;22.90;83.30;;;;;;5098656;28;20062;-76
2021/07/29 00:27:55;;;;;;;18.85;13.90;;;22.90;83.30;;;;;;5080915;28;20487;-76
2021/07/29 00:30:23;;;;;;;18.10;14.55;;;22.90;83.40;;;;;;5097944;28;20031;-76
2021/07/29 00:32:52;;;;;;;19.10;14.43;;;22.90;83.50;;;;;;5116483;28;20460;-77
2021/07/29 00:35:19;;;;;;;17.13;14.77;;;22.90;83.50;;;;;;5116313;28;20039;-77
2021/07/29 00:37:49;;;;;;;16.70;14.93;;;22.90;83.70;;;;;;5097937;28;20043;-77
2021/07/29 00:40:22;;;;;;;15.93;14.23;;;22.90;83.60;;;;;;5097539;28;20124;-77
2021/07/29 00:42:48;;;;;;;16.60;14.80;;;22.90;83.80;;;;;;5116078;28;20176;-76
2021/07/29 00:45:14;;;;;;;16.88;15.15;;;22.90;84.20;;;;;;5116002;28;20551;-77
2021/07/29 00:47:46;;;;;;;18.60;15.75;;;22.80;84.10;;;;;;5079867;28;20491;-77
2021/07/29 00:50:14;;;;;;;17.60;15.38;;;22.80;84.30;;;;;;5116187;28;20471;-77
2021/07/29 00:52:40;;;;;;;20.80;14.70;;;22.90;84.20;;;;;;5080996;28;20035;-77
2021/07/29 00:55:07;;;;;;;18.08;16.13;;;22.90;84.40;;;;;;5115546;28;20035;-77
2021/07/29 00:57:34;;;;;;;20.95;16.58;;;22.90;84.10;;;;;;5115936;28;20065;-77
2021/07/29 01:00:01;;;;;;;17.05;15.32;;;22.80;84.10;;;;;;5097475;28;20027;-77
2021/07/29 01:02:27;;;;;;;19.77;17.08;;;22.80;84.00;;;;;;5115275;28;20059;-77
2021/07/29 01:04:55;;;;;;;21.77;17.73;;;22.80;84.10;;;;;;5115576;28;20118;-77
2021/07/29 01:07:21;;;;;;;22.85;18.35;;;22.90;84.40;;;;;;5096991;28;20492;-77
2021/07/29 01:09:47;;;;;;;21.73;18.08;;;22.90;84.20;;;;;;5079722;28;20038;-77
2021/07/29 01:12:13;;;;;;;24.42;19.38;;;22.80;84.60;;;;;;5097272;28;20047;-77
2021/07/29 01:14:39;;;;;;;23.52;19.27;;;22.80;84.60;;;;;;5114260;28;20483;-77
2021/07/29 01:17:05;;;;;;;23.95;18.75;;;22.80;84.80;;;;;;5115577;28;20105;-77
2021/07/29 01:19:31;;;;;;;24.63;18.77;;;22.80;85.50;;;;;;5114052;28;20034;-77
2021/07/29 01:21:58;;;;;;;25.55;19.00;;;22.80;84.70;;;;;;5097117;28;20069;-77
2021/07/29 01:24:25;;;;;;;24.08;19.30;;;22.80;85.00;;;;;;5096669;28;20507;-77
2021/07/29 01:26:52;;;;;;;24.73;18.95;;;22.80;84.70;;;;;;5096935;28;20114;-77
2021/07/29 01:29:19;;;;;;;24.48;19.52;;;22.80;84.70;;;;;;5096864;28;20049;-77
2021/07/29 01:31:46;;;;;;;23.02;19.25;;;22.80;84.90;;;;;;5097006;28;20480;-77
2021/07/29 01:34:11;;;;;;;25.50;19.20;;;22.80;85.00;;;;;;5114996;28;20043;-77
2021/07/29 01:36:38;;;;;;;26.05;20.55;;;22.90;85.20;;;;;;5115009;28;20042;-77
2021/07/29 01:39:04;;;;;;;25.60;19.30;;;22.80;85.20;;;;;;5096544;28;20467;-77
2021/07/29 01:41:30;;;;;;;25.35;19.45;;;22.80;85.20;;;;;;5096670;28;20479;-77
2021/07/29 01:43:56;;;;;;;22.10;18.23;;;22.80;85.10;;;;;;5096713;28;20480;-77
2021/07/29 01:46:22;;;;;;;23.48;18.25;;;22.80;85.00;;;;;;5096524;28;20043;-77
2021/07/29 01:48:48;;;;;;;24.50;18.70;;;22.80;85.20;;;;;;5096410;28;20084;-77
2021/07/29 01:51:14;;;;;;;20.80;18.50;;;22.90;85.30;;;;;;5114611;28;20039;-77
2021/07/29 01:53:40;;;;;;;22.90;18.45;;;22.90;85.20;;;;;;5095622;28;20530;-77
2021/07/29 01:56:09;;;;;;;27.08;19.27;;;22.90;85.60;;;;;;5114619;28;20035;-77
2021/07/29 01:58:35;;;;;;;22.80;17.40;;;22.80;85.30;;;;;;5114972;28;20035;-76
2021/07/29 02:01:02;;;;;;;23.75;17.38;;;22.80;85.40;;;;;;5114465;28;20031;-76
2021/07/29 02:03:28;;;;;;;22.98;18.60;;;22.90;85.40;;;;;;5095956;28;20419;-77
2021/07/29 02:05:54;;;;;;;24.30;18.90;;;22.90;85.50;;;;;;5114236;28;20038;-77
2021/07/29 02:08:21;;;;;;;20.50;17.67;;;22.90;85.50;;;;;;5114222;28;20483;-77
2021/07/29 02:10:47;;;;;;;23.30;19.52;;;22.90;85.60;;;;;;5114292;28;20039;-76
2021/07/29 02:13:13;;;;;;;23.52;18.23;;;22.90;85.80;;;;;;5096050;28;20502;-77
2021/07/29 02:15:39;;;;;;;25.35;18.80;;;22.90;85.70;;;;;;5114365;28;20038;-77
2021/07/29 02:18:05;;;;;;;23.00;17.75;;;22.90;85.70;;;;;;5095842;28;20051;-76
2021/07/29 02:20:31;;;;;;;21.42;19.10;;;22.90;85.90;;;;;;5113710;28;20074;-76
2021/07/29 02:22:57;;;;;;;20.42;18.23;;;22.90;85.80;;;;;;5113839;28;20083;-77
2021/07/29 02:25:26;;;;;;;26.83;18.40;;;22.90;85.80;;;;;;5095400;28;20035;-77
2021/07/29 02:27:52;;;;;;;22.85;19.38;;;22.90;86.20;;;;;;5113988;28;20042;-77
2021/07/29 02:30:18;;;;;;;30.63;18.63;;;22.90;86.40;;;;;;5114151;28;20031;-77
2021/07/29 02:32:44;;;;;;;25.52;19.60;;;22.90;86.20;;;;;;5113508;28;20047;-77
2021/07/29 02:35:10;;;;;;;23.33;18.02;;;22.90;86.00;;;;;;5113963;28;20095;-79
2021/07/29 02:37:36;;;;;;;20.45;18.25;;;22.90;85.90;;;;;;5113903;28;20035;-79
2021/07/29 02:40:04;;;;;;;22.17;19.13;;;22.90;85.90;;;;;;5113852;28;20058;-79
2021/07/29 02:42:30;;;;;;;23.70;19.73;;;22.90;86.00;;;;;;5113763;28;20046;-79
2021/07/29 02:44:55;;;;;;;22.80;19.08;;;23.00;86.20;;;;;;5114374;28;20035;-79
2021/07/29 02:47:21;;;;;;;23.67;19.05;;;22.90;86.00;;;;;;5113523;28;20046;-79
2021/07/29 02:49:47;;;;;;;23.83;18.50;;;23.00;86.20;;;;;;5113492;28;20043;-79
2021/07/29 02:52:13;;;;;;;21.38;18.90;;;23.00;86.20;;;;;;5113784;28;20039;-79
2021/07/29 02:54:41;;;;;;;24.75;19.25;;;23.00;86.20;;;;;;5113969;28;20074;-79
2021/07/29 02:57:07;;;;;;;24.05;19.30;;;23.00;86.20;;;;;;5113573;28;20098;-79
2021/07/29 02:59:33;;;;;;;21.85;18.88;;;23.00;86.20;;;;;;5113479;28;20483;-79
2021/07/29 03:01:58;;;;;;;24.90;19.17;;;23.00;86.40;;;;;;5113331;28;20055;-78
2021/07/29 03:04:25;;;;;;;24.85;17.95;;;23.00;86.40;;;;;;5113280;28;20043;-78
2021/07/29 03:06:51;;;;;;;20.98;17.75;;;23.00;86.40;;;;;;5113447;28;20034;-78
2021/07/29 03:09:17;;;;;;;23.15;18.48;;;23.00;86.60;;;;;;5112911;28;20031;-78
2021/07/29 03:11:42;;;;;;;21.92;17.90;;;23.00;86.80;;;;;;5113372;28;20031;-78
2021/07/29 03:14:08;;;;;;;21.92;17.73;;;23.00;86.70;;;;;;5113330;28;20563;-77
2021/07/29 03:16:34;;;;;;;21.35;17.10;;;23.00;86.80;;;;;;5113393;28;20031;-76
2021/07/29 03:19:02;;;;;;;20.90;16.38;;;23.00;86.60;;;;;;5112999;28;20035;-77
2021/07/29 03:21:28;;;;;;;20.75;17.23;;;23.10;86.70;;;;;;5113080;28;20039;-77
2021/07/29 03:23:54;;;;;;;22.85;16.95;;;23.00;86.80;;;;;;5113194;28;20135;-76
2021/07/29 03:26:20;;;;;;;21.73;16.85;;;23.10;86.70;;;;;;5095165;28;20126;-76
2021/07/29 03:28:46;;;;;;;19.92;16.45;;;23.00;86.70;;;;;;5113257;28;20411;-76
2021/07/29 03:31:12;;;;;;;20.55;16.33;;;23.00;86.80;;;;;;5112638;28;20032;-78
2021/07/29 03:33:38;;;;;;;18.58;15.70;;;23.10;86.70;;;;;;5112527;28;20039;-79
2021/07/29 03:36:04;;;;;;;17.77;13.90;;;23.00;86.60;;;;;;5101959;28;20039;-79
2021/07/29 03:38:30;;;;;;;17.85;14.80;;;23.10;86.70;;;;;;5094768;28;20027;-78
2021/07/29 03:40:56;;;;;;;17.25;14.80;;;23.10;86.40;;;;;;5113583;28;20104;-77
2021/07/29 03:43:22;;;;;;;19.08;14.77;;;23.10;86.40;;;;;;5112616;28;20404;-78
2021/07/29 03:45:48;;;;;;;18.00;13.95;;;23.10;86.50;;;;;;5112993;28;20064;-76
2021/07/29 03:48:14;;;;;;;16.67;13.40;;;23.10;86.40;;;;;;5126221;28;20083;-78
2021/07/29 03:50:41;;;;;;;18.50;13.05;;;23.20;86.20;;;;;;5114929;28;20043;-77
2021/07/29 03:53:07;;;;;;;18.15;13.85;;;23.20;86.00;;;;;;5078680;28;20036;-77
2021/07/29 03:55:33;;;;;;;14.57;12.27;;;23.20;86.10;;;;;;5092554;28;20027;-77
2021/07/29 03:57:59;;;;;;;15.48;13.23;;;23.20;86.10;;;;;;5090970;28;20039;-77
2021/07/29 04:00:25;;;;;;;17.00;13.10;;;23.20;86.20;;;;;;5090816;28;20055;-77
2021/07/29 04:02:51;;;;;;;14.55;12.20;;;23.20;86.00;;;;;;5092024;28;20056;-76
2021/07/29 04:05:17;;;;;;;15.88;13.05;;;23.20;85.90;;;;;;5092198;28;20108;-77
2021/07/29 04:07:43;;;;;;;17.92;12.73;;;23.30;86.00;;;;;;5092594;28;20043;-76
2021/07/29 04:10:09;;;;;;;16.60;12.32;;;23.20;86.10;;;;;;5092198;28;20032;-77
2021/07/29 04:12:35;;;;;;;13.43;11.43;;;23.20;86.00;;;;;;5092365;28;20078;-77
2021/07/29 04:15:02;;;;;;;14.90;12.32;;;23.30;86.10;;;;;;5091995;28;20131;-77
2021/07/29 04:17:28;;;;;;;14.73;11.23;;;23.30;86.20;;;;;;5091978;28;20036;-77
2021/07/29 04:19:54;;;;;;;12.63;10.25;;;23.30;86.10;;;;;;5092519;28;20492;-77
2021/07/29 04:22:20;;;;;;;13.32;10.45;;;23.30;86.10;;;;;;5094118;28;20051;-77
2021/07/29 04:24:46;;;;;;;13.25;10.88;;;23.30;86.00;;;;;;5096295;28;20040;-77
2021/07/29 04:27:11;;;;;;;14.70;10.13;;;23.30;86.00;;;;;;5094764;28;20032;-77
2021/07/29 04:29:37;;;;;;;14.32;9.70;;;23.30;86.00;;;;;;5095957;28;20396;-77
2021/07/29 04:32:04;;;;;;;11.15;8.77;;;23.30;85.80;;;;;;5095967;28;20044;-77
2021/07/29 04:34:32;;;;;;;12.25;9.13;;;23.30;85.70;;;;;;5096420;28;20146;-77
2021/07/29 04:36:58;;;;;;;12.55;8.73;;;23.30;85.60;;;;;;5095938;28;20036;-77
2021/07/29 04:39:27;;;;;;;9.38;8.38;;;23.30;85.60;;;;;;5095882;28;20036;-76
2021/07/29 04:41:53;;;;;;;11.50;8.65;;;23.30;85.60;;;;;;5095846;28;20169;-76
2021/07/29 04:44:19;;;;;;;12.90;8.63;;;23.30;85.50;;;;;;5094195;28;20126;-77
2021/07/29 04:46:45;;;;;;;11.23;8.77;;;23.30;85.70;;;;;;5095372;28;20173;-76
2021/07/29 04:49:11;;;;;;;9.15;8.00;;;23.30;85.50;;;;;;5095488;28;20043;-76
2021/07/29 04:51:39;;;;;;;9.77;8.68;;;23.40;85.60;;;;;;5095527;28;20032;-77
2021/07/29 04:54:05;;;;;;;10.00;8.73;;;23.40;85.40;;;;;;5095504;28;20503;-79
2021/07/29 04:56:32;;;;;;;8.93;8.02;;;23.40;85.30;;;;;;5095699;28;20496;-77
2021/07/29 04:58:58;;;;;;;9.52;8.48;;;23.40;85.30;;;;;;5095359;28;20164;-77
2021/07/29 05:01:25;;;;;;;9.75;8.50;;;23.40;85.30;;;;;;5095473;28;20560;-79
2021/07/29 05:03:50;;;;;;;9.27;8.13;;;23.40;85.10;;;;;;5095220;28;20451;-77
2021/07/29 05:06:16;;;;;;;9.77;8.77;;;23.40;85.10;;;;;;5095223;28;20039;-76
2021/07/29 05:08:43;;;;;;;10.95;9.07;;;23.40;85.00;;;;;;5095320;28;20036;-79
2021/07/29 05:11:10;;;;;;;11.57;9.57;;;23.50;85.10;;;;;;5095126;28;20082;-78
2021/07/29 05:13:36;;;;;;;10.35;9.25;;;23.50;85.30;;;;;;5095092;28;20089;-78
2021/07/29 05:16:06;;;;;;;11.32;9.25;;;23.50;85.20;;;;;;5095354;28;20093;-75
2021/07/29 05:18:36;;;;;;;11.02;9.13;;;23.50;85.00;;;;;;5094618;28;20032;-75
2021/07/29 05:21:07;;;;;;;10.98;9.77;;;23.50;84.90;;;;;;5094780;28;20071;-78
2021/07/29 05:23:34;;;;;;;11.05;9.90;;;23.50;84.70;;;;;;5093171;28;20550;-75
2021/07/29 05:26:00;;;;;;;11.68;10.02;;;23.60;84.70;;;;;;5093467;28;20412;-75
2021/07/29 05:28:26;;;;;;;11.25;10.05;;;23.50;84.50;;;;;;5094637;28;20036;-75
2021/07/29 05:30:52;;;;;;;10.95;9.43;;;23.60;84.50;;;;;;5094917;28;20031;-77
2021/07/29 05:33:18;;;;;;;11.02;9.88;;;23.60;84.20;;;;;;5105987;28;20415;-78
2021/07/29 05:35:45;;;;;;;11.30;9.88;;;23.60;84.00;;;;;;5114437;28;20032;-78
2021/07/29 05:38:11;;;;;;;12.60;10.38;;;23.60;83.90;;;;;;5113633;28;20036;-77
2021/07/29 05:40:37;;;;;;;10.77;9.63;;;23.60;83.80;;;;;;5113533;28;20042;-77
2021/07/29 05:43:03;;;;;;;11.77;9.80;;;23.60;83.70;;;;;;5101262;28;20039;-77
2021/07/29 05:45:29;;;;;;;11.10;9.90;;;23.60;83.60;;;;;;5113381;28;20032;-77
2021/07/29 05:47:55;;;;;;;10.85;9.75;;;23.60;83.60;;;;;;5114203;28;20031;-77
2021/07/29 05:50:22;;;;;;;11.20;10.02;;;23.70;83.60;;;;;;5114545;28;20085;-78
2021/07/29 05:52:48;;;;;;;11.57;10.38;;;23.70;83.50;;;;;;5114423;28;20027;-77
2021/07/29 05:55:14;;;;;;;10.95;9.85;;;23.70;83.50;;;;;;5097920;27;20483;-76
2021/07/29 05:57:40;;;;;;;11.85;9.10;;;23.70;83.60;;;;;;5121110;27;20506;-78
2021/07/29 06:00:07;;;;;;;11.02;9.77;;;23.70;83.50;;;;;;5114619;28;20035;-79
2021/07/29 06:02:35;;;;;;;10.95;9.57;;;23.70;83.30;;;;;;5114307;28;20055;-80
2021/07/29 06:05:01;;;;;;;12.45;9.98;;;23.80;83.20;;;;;;5114229;28;20036;-79
2021/07/29 06:07:29;;;;;;;10.63;9.40;;;23.80;83.30;;;;;;5113498;28;20036;-80
2021/07/29 06:09:55;;;;;;;10.65;9.63;;;23.80;83.20;;;;;;5127287;27;20495;-80
2021/07/29 06:12:24;;;;;;;10.18;9.18;;;23.80;83.10;;;;;;5116085;27;20506;-81
2021/07/29 06:14:54;;;;;;;9.55;8.65;;;23.80;83.10;;;;;;5115133;27;20379;-81
2021/07/29 06:17:28;;;;;;;10.35;9.32;;;23.80;83.10;;;;;;5105370;27;20086;-80
2021/07/29 06:19:54;;;;;;;9.73;8.65;;;23.80;83.20;;;;;;5116293;27;20050;-78
2021/07/29 06:22:20;;;;;;;10.07;9.07;;;23.80;83.40;;;;;;5098706;27;20031;-79
2021/07/29 06:24:46;;;;;;;11.00;8.77;;;23.90;83.30;;;;;;5134161;27;20046;-78
2021/07/29 06:27:12;;;;;;;11.48;8.90;;;23.90;83.30;;;;;;5134167;27;20399;-79
2021/07/29 06:29:38;;;;;;;10.95;8.80;;;23.90;83.50;;;;;;5098820;27;20034;-80
2021/07/29 06:32:05;;;;;;;10.13;8.18;;;23.90;83.60;;;;;;5134601;27;20548;-81
2021/07/29 06:34:31;;;;;;;9.20;8.30;;;23.80;83.70;;;;;;5115915;27;20479;-79
2021/07/29 06:36:57;;;;;;;11.07;8.55;;;23.90;82.90;;;;;;5115809;27;20054;-78
2021/07/29 06:39:23;;;;;;;9.75;8.75;;;23.90;82.70;;;;;;5133487;27;20063;-78
2021/07/29 06:41:49;;;;;;;9.52;8.45;;;23.90;82.50;;;;;;5133262;27;20063;-78
2021/07/29 06:44:15;;;;;;;9.55;8.63;;;23.90;82.50;;;;;;5133284;27;20051;-79
2021/07/29 06:46:41;;;;;;;9.00;8.10;;;23.90;82.40;;;;;;5134065;27;20092;-78
2021/07/29 06:49:07;;;;;;;7.53;6.78;;;23.90;82.40;;;;;;5134100;27;20031;-79
2021/07/29 06:51:36;;;;;;;10.15;7.90;;;23.90;82.40;;;;;;5134129;27;20035;-77
2021/07/29 06:54:04;;;;;;;8.90;7.90;;;24.00;82.30;;;;;;5133851;27;20118;-79
2021/07/29 06:56:31;;;;;;;10.48;7.60;;;23.90;81.90;;;;;;5115652;27;20510;-78
2021/07/29 06:58:57;;;;;;;9.27;7.80;;;24.00;81.80;;;;;;5133886;27;20038;-78
2021/07/29 07:01:24;;;;;;;8.35;7.43;;;24.00;81.80;;;;;;5115387;27;20586;-78
2021/07/29 07:03:51;;;;;;;9.35;8.23;;;24.00;81.60;;;;;;5133933;27;20119;-78
2021/07/29 07:06:17;;;;;;;8.55;7.65;;;24.00;81.60;;;;;;5133876;27;20049;-78
2021/07/29 07:08:43;;;;;;;8.02;7.22;;;24.00;81.60;;;;;;5133531;27;20039;-78
2021/07/29 07:11:17;;;;;;;7.85;7.05;;;24.00;81.50;;;;;;5134299;27;20057;-77
2021/07/29 07:13:44;;;;;;;7.97;7.15;;;24.10;81.50;;;;;;5134106;27;20368;-79
2021/07/29 07:16:14;;;;;;;8.55;7.57;;;24.00;81.20;;;;;;5096491;28;20023;-78
2021/07/29 07:18:40;;;;;;;8.23;7.32;;;24.00;81.00;;;;;;5118901;28;20031;-81
2021/07/29 07:21:09;;;;;;;8.05;7.22;;;24.00;80.90;;;;;;5127133;28;20504;-74
2021/07/29 07:23:36;;;;;;;8.80;7.43;;;24.00;80.80;;;;;;5114677;28;20035;-83
2021/07/29 07:26:02;;;;;;;8.80;7.35;;;24.10;80.90;;;;;;5111622;28;20070;-80
2021/07/29 07:28:28;;;;;;;7.90;6.55;;;24.00;80.70;;;;;;5113802;28;20092;-81
2021/07/29 07:30:54;;;;;;;8.65;6.55;;;24.10;80.80;;;;;;5111516;28;20043;-79
2021/07/29 07:33:20;;;;;;;7.97;7.07;;;24.10;80.50;;;;;;5111608;28;20039;-80
2021/07/29 07:35:46;;;;;;;7.47;6.72;;;24.10;80.40;;;;;;5093128;28;20355;-79
2021/07/29 07:38:12;;;;;;;8.07;7.07;;;24.10;80.20;;;;;;5111396;28;20111;-79
2021/07/29 07:40:38;;;;;;;7.63;6.82;;;24.10;80.00;;;;;;5115841;28;20035;-78
2021/07/29 07:43:04;;;;;;;7.18;6.47;;;24.10;80.00;;;;;;5111537;28;20074;-79
2021/07/29 07:45:30;;;;;;;9.50;7.22;;;24.10;80.10;;;;;;5112788;28;20062;-78
2021/07/29 07:47:56;;;;;;;6.82;6.13;;;24.20;80.20;;;;;;5112863;28;20435;-77
2021/07/29 07:50:22;;;;;;;6.60;5.90;;;24.30;80.20;;;;;;5112786;28;20039;-77
2021/07/29 07:52:48;;;;;;;7.20;6.50;;;24.40;80.00;;;;;;5094915;28;20391;-80
2021/07/29 07:55:14;;;;;;;8.15;6.10;;;24.60;79.80;;;;;;5113196;28;20035;-80
2021/07/29 07:57:40;;;;;;;9.20;6.78;;;24.70;79.60;;;;;;5117170;28;20475;-80
2021/07/29 08:00:06;;;;;;;7.32;6.30;;;24.70;79.40;;;;;;5116855;28;20123;-78
2021/07/29 08:02:33;;;;;;;6.43;5.82;;;24.80;80.40;;;;;;5081334;28;20052;-81
2021/07/29 08:04:59;;;;;;;7.97;5.93;;;24.80;80.00;;;;;;5116673;28;20525;-79
2021/07/29 08:07:25;;;;;;;6.97;6.28;;;24.80;79.20;;;;;;5116364;28;20411;-79
2021/07/29 08:09:51;;;;;;;7.35;6.65;;;23.60;78.50;;;;;;5098330;28;20030;-80
2021/07/29 08:12:17;;;;;;;8.75;6.38;;;24.80;78.60;;;;;;5117104;28;20035;-79
2021/07/29 08:14:43;;;;;;;7.03;6.32;;;24.80;78.30;;;;;;5116564;28;20543;-79
2021/07/29 08:17:09;;;;;;;7.47;5.88;;;24.80;78.50;;;;;;5116820;28;20061;-78
2021/07/29 08:19:34;;;;;;;7.22;6.45;;;24.80;78.30;;;;;;5116289;28;20040;-78
2021/07/29 08:22:01;;;;;;;7.13;6.32;;;24.80;78.00;;;;;;5116147;28;20067;-79
2021/07/29 08:24:27;;;;;;;7.80;6.00;;;24.80;77.80;;;;;;5116283;28;20032;-78
2021/07/29 08:26:53;;;;;;;7.22;6.55;;;24.80;77.80;;;;;;5098222;28;20435;-78
2021/07/29 08:29:19;;;;;;;7.13;6.15;;;24.70;77.90;;;;;;5116161;28;20036;-79
2021/07/29 08:31:45;;;;;;;7.43;6.63;;;24.80;78.10;;;;;;5097843;28;20491;-77
2021/07/29 08:34:11;;;;;;;7.03;6.30;;;24.70;78.10;;;;;;5097301;28;20168;-78
2021/07/29 08:36:37;;;;;;;7.20;6.35;;;24.80;78.10;;;;;;5115780;28;20051;-79
2021/07/29 08:39:03;;;;;;;6.60;5.90;;;24.80;78.10;;;;;;5097671;28;20041;-79
2021/07/29 08:41:29;;;;;;;7.53;6.10;;;24.80;78.20;;;;;;5097986;28;20034;-78
2021/07/29 08:43:54;;;;;;;6.43;5.82;;;24.80;78.00;;;;;;5115849;28;20408;-79
2021/07/29 08:46:21;;;;;;;6.00;5.40;;;24.90;77.90;;;;;;5097727;28;20503;-80
2021/07/29 08:48:49;;;;;;;7.07;5.80;;;24.90;77.80;;;;;;5115693;28;20063;-80
2021/07/29 08:51:25;;;;;;;7.50;5.85;;;25.00;77.90;;;;;;5097500;28;20134;-79
2021/07/29 08:53:52;;;;;;;8.32;5.88;;;25.00;77.90;;;;;;5115316;28;20401;-78
2021/07/29 08:56:24;;;;;;;6.43;5.53;;;25.00;77.80;;;;;;5115312;28;20038;-79
2021/07/29 08:58:53;;;;;;;7.30;5.75;;;25.10;78.00;;;;;;5097217;28;20499;-78
2021/07/29 09:01:37;;;;;;;6.45;5.30;;;25.10;78.10;;;;;;5096915;28;20078;-78
2021/07/29 09:04:13;;;;;;;6.80;6.10;;;25.10;78.10;;;;;;5115340;28;20059;-79
2021/07/29 09:07:16;;;;;;;10.23;5.80;;;25.10;78.00;;;;;;5097399;28;20027;-78
2021/07/29 09:09:47;;;;;;;5.82;5.32;;;25.10;78.00;;;;;;5052545;28;20040;-78
2021/07/29 09:12:18;;;;;;;6.47;5.55;;;25.20;77.70;;;;;;5087932;28;20036;-80
2021/07/29 09:14:46;;;;;;;6.18;5.68;;;25.20;77.70;;;;;;5095106;28;20032;-81
2021/07/29 09:17:12;;;;;;;6.88;5.10;;;25.20;77.60;;;;;;5095180;28;20035;-80
2021/07/29 09:19:41;;;;;;;5.93;5.43;;;25.20;77.50;;;;;;5076794;28;20073;-78
2021/07/29 09:22:11;;;;;;;5.68;5.13;;;25.30;77.60;;;;;;5076735;28;20161;-79
2021/07/29 09:24:59;;;;;;;6.28;5.68;;;25.30;77.40;;;;;;5076364;28;20044;-80
2021/07/29 09:27:26;;;;;;;5.63;5.13;;;25.30;77.40;;;;;;5076947;28;20039;-78
2021/07/29 09:29:52;;;;;;;5.93;5.18;;;25.30;77.20;;;;;;5094555;28;20407;-79
2021/07/29 09:32:20;;;;;;;6.25;5.15;;;25.30;77.10;;;;;;5094506;28;20122;-79
2021/07/29 09:34:51;;;;;;;5.53;5.03;;;25.30;77.20;;;;;;5076654;28;20043;-79
2021/07/29 09:37:19;;;;;;;5.63;4.68;;;25.30;77.10;;;;;;5094657;28;20122;-81
2021/07/29 09:39:57;;;;;;;7.68;5.00;;;25.40;77.10;;;;;;5094500;28;20047;-77
2021/07/29 09:42:24;;;;;;;4.70;4.30;;;25.40;77.20;;;;;;5094865;28;20028;-79
2021/07/29 09:44:53;;;;;;;4.68;4.20;;;25.40;77.00;;;;;;5076361;28;20123;-79
2021/07/29 09:47:20;;;;;;;6.22;4.68;;;25.40;76.90;;;;;;5094245;28;20040;-79
2021/07/29 09:49:48;;;;;;;4.90;4.28;;;25.40;76.80;;;;;;5076226;28;20034;-77
2021/07/29 09:52:14;;;;;;;8.10;4.57;;;25.40;76.80;;;;;;5059684;28;20058;-77
2021/07/29 09:54:42;;;;;;;4.60;4.20;;;25.50;76.80;;;;;;5093405;28;20553;-80
2021/07/29 09:57:09;;;;;;;4.75;4.35;;;25.50;76.70;;;;;;5094402;28;20040;-79
2021/07/29 09:59:36;;;;;;;5.85;4.32;;;25.50;76.80;;;;;;5094267;28;20035;-77
2021/07/29 10:02:04;;;;;;;4.72;4.30;;;25.50;76.80;;;;;;5093933;28;20066;-77
2021/07/29 10:04:52;;;;;;;4.78;4.07;;;25.50;76.80;;;;;;5090034;28;20092;-79
2021/07/29 10:07:29;;;;;;;5.72;4.35;;;25.50;76.80;;;;;;5076116;28;20064;-76
2021/07/29 10:09:56;;;;;;;4.53;4.13;;;25.50;76.80;;;;;;5085198;28;20039;-79
2021/07/29 10:12:26;;;;;;;6.40;4.40;;;25.50;76.70;;;;;;5096002;28;20077;-78
2021/07/29 10:14:54;;;;;;;4.50;4.10;;;25.50;76.60;;;;;;5114118;28;20043;-81
2021/07/29 10:17:55;;;;;;;7.38;4.72;;;25.50;76.70;;;;;;5114029;28;20431;-78
2021/07/29 10:20:23;;;;;;;5.40;4.15;;;25.60;76.70;;;;;;5112946;28;20043;-75
2021/07/29 10:23:14;;;;;;;4.75;4.30;;;24.80;76.20;;;;;;5095655;28;20044;-75
2021/07/29 10:25:52;;;;;;;6.28;4.75;;;25.60;76.60;;;;;;5113434;28;20045;-76
2021/07/29 10:28:26;;;;;;;5.22;4.47;;;25.60;76.40;;;;;;5113442;28;20035;-77
2021/07/29 10:31:00;;;;;;;4.97;4.50;;;25.70;76.10;;;;;;5094623;28;20399;-78
2021/07/29 10:33:28;;;;;;;5.17;4.07;;;25.70;75.90;;;;;;5095312;28;20058;-79
2021/07/29 10:35:55;;;;;;;4.82;4.43;;;25.80;75.70;;;;;;5095206;28;20040;-77
2021/07/29 10:38:39;;;;;;;6.25;4.50;;;25.40;75.30;;;;;;5113925;28;20034;-78
2021/07/29 10:41:08;;;;;;;5.35;4.38;;;25.90;75.90;;;;;;5095543;28;20122;-75
2021/07/29 10:43:40;;;;;;;6.47;4.57;;;25.90;75.70;;;;;;5095209;28;20118;-74
2021/07/29 10:46:07;;;;;;;6.03;4.30;;;25.90;76.10;;;;;;5113092;28;20403;-78
2021/07/29 10:48:49;;;;;;;4.88;4.47;;;25.90;75.60;;;;;;5112941;28;20044;-75
2021/07/29 10:51:25;;;;;;;7.57;4.68;;;25.90;74.40;;;;;;5091922;28;20043;-75
2021/07/29 10:53:55;;;;;;;4.95;4.50;;;26.00;73.90;;;;;;5103416;28;20035;-75
2021/07/29 10:56:22;;;;;;;7.88;5.30;;;26.00;74.20;;;;;;5078127;28;20169;-76
2021/07/29 10:58:50;;;;;;;8.20;5.65;;;26.10;74.00;;;;;;5094723;28;20076;-76
2021/07/29 11:01:18;;;;;;;5.70;5.10;;;26.00;73.40;;;;;;5113266;28;20158;-76
2021/07/29 11:03:48;;;;;;;8.50;5.18;;;26.10;73.60;;;;;;5113101;28;20043;-77
2021/07/29 11:06:33;;;;;;;5.57;5.07;;;26.10;73.90;;;;;;5112952;28;20027;-76
2021/07/29 11:09:31;;;;;;;8.98;4.70;;;26.10;73.90;;;;;;5095409;28;20046;-75
2021/07/29 11:11:58;;;;;;;5.78;5.10;;;26.10;74.00;;;;;;5107320;28;20087;-74
2021/07/29 11:14:30;;;;;;;6.20;5.60;;;26.10;73.90;;;;;;5113469;28;20058;-76
2021/07/29 11:17:05;;;;;;;6.65;5.88;;;26.10;73.70;;;;;;5113394;28;20039;-74
2021/07/29 11:19:45;;;;;;;7.15;5.65;;;26.10;73.50;;;;;;5131917;27;20514;-75
2021/07/29 11:22:12;;;;;;;9.65;6.63;;;26.10;73.30;;;;;;5111055;28;20035;-76
2021/07/29 11:24:38;;;;;;;6.35;5.60;;;26.10;73.30;;;;;;5112864;28;20563;-76
2021/07/29 11:27:13;;;;;;;7.30;6.47;;;26.10;73.50;;;;;;5113434;28;20046;-75
2021/07/29 11:29:56;;;;;;;6.82;6.22;;;26.20;73.40;;;;;;5094779;28;20119;-76
2021/07/29 11:32:22;;;;;;;7.03;6.32;;;26.20;73.40;;;;;;5110436;27;20471;-76
2021/07/29 11:34:57;;;;;;;7.68;6.30;;;26.20;73.20;;;;;;5124866;27;20539;-75
2021/07/29 11:37:34;;;;;;;6.93;6.32;;;26.20;73.30;;;;;;5099250;28;20028;-77
2021/07/29 11:40:00;;;;;;;8.32;6.45;;;26.20;73.30;;;;;;5089318;27;20039;-76
2021/07/29 11:42:36;;;;;;;7.70;6.30;;;26.20;72.90;;;;;;5128676;27;20054;-75
2021/07/29 11:45:03;;;;;;;7.00;6.40;;;26.20;73.10;;;;;;5099049;28;20035;-74
2021/07/29 11:47:42;;;;;;;7.20;6.50;;;26.20;73.30;;;;;;5116850;28;20028;-73
2021/07/29 11:50:09;;;;;;;8.25;7.55;;;26.20;73.40;;;;;;5117026;28;20074;-76
2021/07/29 11:52:35;;;;;;;7.57;6.97;;;26.30;73.20;;;;;;5116431;28;20044;-74
2021/07/29 11:55:09;;;;;;;7.72;6.93;;;26.30;73.20;;;;;;5115794;28;20113;-74
2021/07/29 11:57:35;;;;;;;7.50;6.80;;;26.30;73.00;;;;;;5115999;28;20032;-76
2021/07/29 12:00:01;;;;;;;8.88;8.07;;;26.30;72.90;;;;;;5097546;28;20091;-77
2021/07/29 12:02:27;;;;;;;8.80;7.90;;;26.30;72.90;;;;;;5115926;28;20062;-75
2021/07/29 12:04:53;;;;;;;9.25;8.45;;;26.30;72.60;;;;;;5115599;28;20039;-76
2021/07/29 12:07:19;;;;;;;9.05;7.93;;;26.40;73.00;;;;;;5097272;28;20034;-75
2021/07/29 12:09:47;;;;;;;9.85;8.02;;;26.40;73.20;;;;;;5081161;28;20530;-75
2021/07/29 12:12:16;;;;;;;8.98;8.18;;;26.40;73.40;;;;;;5098257;28;20063;-76
2021/07/29 12:14:45;;;;;;;10.13;8.15;;;26.40;73.60;;;;;;5098203;28;20043;-75
2021/07/29 12:17:22;;;;;;;9.45;8.55;;;26.40;73.40;;;;;;5098263;28;20027;-76
2021/07/29 12:20:00;;;;;;;8.60;7.80;;;26.40;73.10;;;;;;5115473;28;20395;-77
2021/07/29 12:22:27;;;;;;;8.45;7.65;;;26.40;73.20;;;;;;5080819;28;20384;-76
2021/07/29 12:24:55;;;;;;;10.05;8.30;;;26.50;73.20;;;;;;5115275;28;20092;-74
2021/07/29 12:27:21;;;;;;;9.23;8.43;;;26.40;72.60;;;;;;5081170;28;20480;-74
2021/07/29 12:29:48;;;;;;;8.95;8.05;;;26.50;72.60;;;;;;5097821;28;20042;-75
2021/07/29 12:32:26;;;;;;;9.20;8.38;;;26.50;72.80;;;;;;5097877;28;20031;-75
2021/07/29 12:34:54;;;;;;;9.20;8.13;;;26.50;72.80;;;;;;5096615;28;20119;-77
2021/07/29 12:37:37;;;;;;;10.27;8.20;;;26.50;73.10;;;;;;5116348;28;20400;-76
2021/07/29 12:40:05;;;;;;;8.88;8.00;;;26.40;72.60;;;;;;5080589;28;20122;-74
2021/07/29 12:42:32;;;;;;;8.95;8.07;;;26.50;72.60;;;;;;5096395;28;20365;-74
2021/07/29 12:45:05;;;;;;;8.80;8.10;;;26.40;72.50;;;;;;5097497;28;20067;-74